createdAt,value
2019-03-26T00:00:24.405Z,10.17
2019-03-26T00:01:09.919Z,8.90
2019-03-26T00:01:50.208Z,9.57
2019-03-26T00:02:29.468Z,9.13
2019-03-26T00:03:08.582Z,9.17
2019-03-26T00:03:48.147Z,9.03
2019-03-26T00:04:28.476Z,8.45
2019-03-26T00:05:08.099Z,9.10
2019-03-26T00:05:47.440Z,8.40
2019-03-26T00:06:29.446Z,9.23
2019-03-26T00:07:08.703Z,9.13
2019-03-26T00:07:48.264Z,9.23
2019-03-26T00:08:27.475Z,7.93
2019-03-26T00:09:08.118Z,9.27
2019-03-26T00:09:47.853Z,8.43
2019-03-26T00:10:27.435Z,9.93
2019-03-26T00:11:07.914Z,9.15
2019-03-26T00:11:47.524Z,9.57
2019-03-26T00:12:27.541Z,7.73
2019-03-26T00:13:08.512Z,9.03
2019-03-26T00:13:48.685Z,9.23
2019-03-26T00:14:28.519Z,9.77
2019-03-26T00:15:08.072Z,7.63
2019-03-26T00:15:47.575Z,10.30
2019-03-26T00:16:27.845Z,8.00
2019-03-26T00:17:07.431Z,9.13
2019-03-26T00:17:46.908Z,10.07
2019-03-26T00:18:26.668Z,9.73
2019-03-26T00:19:06.252Z,10.27
2019-03-26T00:19:46.607Z,9.40
2019-03-26T00:20:26.158Z,10.20
2019-03-26T00:21:05.129Z,10.30
2019-03-26T00:21:45.360Z,9.17
2019-03-26T00:22:25.165Z,16.63
2019-03-26T00:23:04.117Z,9.00
2019-03-26T00:23:43.378Z,8.08
2019-03-26T00:24:23.058Z,9.03
2019-03-26T00:25:02.141Z,9.87
2019-03-26T00:25:41.188Z,12.03
2019-03-26T00:26:20.456Z,9.53
2019-03-26T00:26:59.598Z,9.05
2019-03-26T00:27:38.972Z,11.03
2019-03-26T00:28:18.636Z,9.03
2019-03-26T00:28:58.009Z,9.50
2019-03-26T00:29:37.670Z,10.53
2019-03-26T00:30:19.566Z,9.37
2019-03-26T00:30:59.156Z,9.43
2019-03-26T00:31:38.498Z,9.93
2019-03-26T00:32:18.024Z,12.90
2019-03-26T00:32:57.676Z,12.65
2019-03-26T00:33:37.172Z,9.07
2019-03-26T00:34:19.623Z,12.73
2019-03-26T00:34:57.747Z,10.40
2019-03-26T00:35:37.481Z,9.53
2019-03-26T00:36:16.917Z,10.90
2019-03-26T00:36:57.136Z,10.90
2019-03-26T00:37:36.781Z,9.90
2019-03-26T00:38:16.452Z,10.08
2019-03-26T00:38:55.913Z,8.27
2019-03-26T00:39:35.073Z,10.10
2019-03-26T00:40:14.564Z,9.80
2019-03-26T00:40:54.600Z,11.10
2019-03-26T00:41:34.767Z,11.03
2019-03-26T00:42:15.330Z,12.40
2019-03-26T00:42:54.566Z,9.47
2019-03-26T00:43:34.395Z,12.03
2019-03-26T00:44:13.353Z,9.40
2019-03-26T00:44:52.601Z,11.07
2019-03-26T00:45:32.063Z,9.23
2019-03-26T00:46:12.051Z,9.20
2019-03-26T00:46:51.395Z,9.87
2019-03-26T00:47:30.724Z,12.47
2019-03-26T00:48:09.811Z,12.95
2019-03-26T00:48:49.387Z,10.70
2019-03-26T00:49:29.245Z,9.97
2019-03-26T00:50:08.726Z,10.37
2019-03-26T00:50:48.835Z,9.77
2019-03-26T00:51:29.534Z,12.60
2019-03-26T00:52:09.806Z,11.23
2019-03-26T00:52:49.528Z,11.17
2019-03-26T00:53:29.313Z,11.43
2019-03-26T00:54:08.873Z,12.45
2019-03-26T00:54:48.809Z,12.07
2019-03-26T00:55:28.445Z,13.27
2019-03-26T00:56:08.830Z,11.70
2019-03-26T00:56:50.288Z,9.33
2019-03-26T00:57:29.665Z,11.53
2019-03-26T00:58:09.690Z,9.60
2019-03-26T00:58:49.219Z,10.37
2019-03-26T00:59:28.955Z,11.80
2019-03-26T01:00:08.494Z,10.60
2019-03-26T01:00:48.825Z,10.30
2019-03-26T01:01:28.996Z,11.78
2019-03-26T01:02:08.528Z,9.93
2019-03-26T01:02:47.499Z,9.93
2019-03-26T01:03:27.520Z,10.20
2019-03-26T01:04:07.210Z,11.25
2019-03-26T01:04:46.192Z,10.50
2019-03-26T01:05:25.284Z,10.95
2019-03-26T01:06:04.365Z,10.23
2019-03-26T01:06:44.168Z,11.00
2019-03-26T01:07:23.464Z,14.27
2019-03-26T01:08:03.001Z,10.93
2019-03-26T01:08:45.271Z,11.48
2019-03-26T01:09:24.364Z,11.70
2019-03-26T01:10:03.351Z,11.50
2019-03-26T01:10:42.651Z,13.43
2019-03-26T01:11:22.287Z,10.43
2019-03-26T01:12:01.974Z,10.97
2019-03-26T01:12:41.517Z,11.77
2019-03-26T01:13:21.074Z,11.20
2019-03-26T01:14:00.694Z,11.90
2019-03-26T01:14:40.327Z,10.58
2019-03-26T01:15:19.624Z,11.17
2019-03-26T01:15:59.361Z,12.40
2019-03-26T01:16:38.496Z,12.20
2019-03-26T01:17:17.597Z,10.00
2019-03-26T01:17:56.688Z,12.73
2019-03-26T01:18:35.774Z,10.10
2019-03-26T01:19:14.750Z,11.17
2019-03-26T01:19:54.233Z,14.07
2019-03-26T01:20:33.173Z,12.03
2019-03-26T01:21:12.623Z,11.63
2019-03-26T01:21:52.016Z,11.00
2019-03-26T01:22:31.858Z,15.60
2019-03-26T01:23:11.300Z,25.90
2019-03-26T01:23:50.732Z,19.50
2019-03-26T01:24:29.894Z,15.40
2019-03-26T01:25:09.047Z,12.83
2019-03-26T01:25:48.794Z,14.05
2019-03-26T01:26:29.411Z,15.30
2019-03-26T01:27:08.641Z,12.03
2019-03-26T01:27:47.743Z,13.50
2019-03-26T01:28:26.836Z,20.03
2019-03-26T01:29:06.009Z,10.07
2019-03-26T01:29:45.317Z,10.40
2019-03-26T01:30:24.461Z,10.77
2019-03-26T01:31:03.969Z,12.97
2019-03-26T01:31:43.610Z,14.07
2019-03-26T01:32:23.236Z,12.18
2019-03-26T01:33:02.845Z,12.03
2019-03-26T01:33:42.578Z,11.30
2019-03-26T01:34:22.340Z,13.30
2019-03-26T01:35:02.723Z,15.40
2019-03-26T01:35:42.414Z,11.30
2019-03-26T01:36:22.139Z,15.30
2019-03-26T01:37:01.866Z,12.87
2019-03-26T01:37:41.784Z,14.70
2019-03-26T01:38:23.241Z,13.15
2019-03-26T01:39:02.585Z,15.30
2019-03-26T01:39:42.208Z,14.75
2019-03-26T01:40:21.542Z,15.83
2019-03-26T01:41:00.547Z,12.45
2019-03-26T01:41:40.423Z,15.88
2019-03-26T01:42:19.586Z,10.45
2019-03-26T01:42:58.678Z,9.53
2019-03-26T01:43:38.331Z,10.25
2019-03-26T01:44:17.355Z,9.40
2019-03-26T01:44:56.603Z,11.65
2019-03-26T01:45:36.305Z,14.43
2019-03-26T01:46:15.937Z,20.52
2019-03-26T01:46:55.349Z,13.90
2019-03-26T01:47:35.215Z,16.60
2019-03-26T01:48:15.147Z,16.20
2019-03-26T01:48:54.783Z,11.60
2019-03-26T01:49:34.389Z,10.98
2019-03-26T01:50:14.353Z,12.80
2019-03-26T01:50:55.745Z,11.93
2019-03-26T01:51:35.674Z,12.70
2019-03-26T01:52:15.264Z,11.75
2019-03-26T01:52:55.603Z,17.65
2019-03-26T01:53:35.108Z,11.88
2019-03-26T01:54:14.668Z,12.30
2019-03-26T01:54:53.678Z,10.15
2019-03-26T01:55:33.533Z,11.83
2019-03-26T01:56:13.250Z,10.23
2019-03-26T01:56:53.304Z,10.58
2019-03-26T01:57:33.347Z,13.63
2019-03-26T01:58:13.278Z,12.03
2019-03-26T01:58:53.136Z,10.13
2019-03-26T01:59:32.777Z,11.40
2019-03-26T02:00:12.464Z,13.75
2019-03-26T02:00:52.395Z,12.30
2019-03-26T02:01:31.508Z,11.70
2019-03-26T02:02:10.516Z,17.00
2019-03-26T02:02:50.158Z,12.55
2019-03-26T02:03:29.149Z,11.00
2019-03-26T02:04:08.659Z,12.33
2019-03-26T02:04:59.412Z,13.87
2019-03-26T02:05:28.342Z,12.85
2019-03-26T02:06:07.737Z,12.83
2019-03-26T02:07:06.209Z,12.23
2019-03-26T02:07:45.697Z,17.45
2019-03-26T02:08:25.537Z,14.93
2019-03-26T02:09:05.792Z,13.03
2019-03-26T02:09:45.304Z,11.67
2019-03-26T02:10:25.168Z,11.20
2019-03-26T02:11:05.611Z,14.10
2019-03-26T02:11:45.312Z,13.03
2019-03-26T02:12:25.304Z,11.95
2019-03-26T02:13:05.079Z,12.50
2019-03-26T02:13:45.863Z,14.70
2019-03-26T02:14:25.989Z,18.70
2019-03-26T02:15:05.822Z,12.65
2019-03-26T02:15:45.305Z,12.33
2019-03-26T02:16:25.097Z,14.43
2019-03-26T02:17:04.916Z,13.07
2019-03-26T02:17:43.937Z,13.43
2019-03-26T02:18:24.319Z,13.38
2019-03-26T02:19:03.894Z,12.03
2019-03-26T02:19:42.909Z,12.33
2019-03-26T02:20:21.972Z,12.00
2019-03-26T02:21:00.964Z,13.70
2019-03-26T02:21:42.865Z,17.47
2019-03-26T02:22:22.338Z,15.53
2019-03-26T02:23:01.459Z,13.25
2019-03-26T02:23:40.479Z,13.60
2019-03-26T02:24:19.780Z,13.63
2019-03-26T02:24:59.009Z,12.97
2019-03-26T02:25:38.490Z,12.97
2019-03-26T02:26:17.953Z,15.23
2019-03-26T02:26:57.484Z,13.60
2019-03-26T02:27:37.270Z,14.77
2019-03-26T02:28:16.417Z,16.00
2019-03-26T02:28:56.455Z,12.33
2019-03-26T02:29:36.124Z,15.37
2019-03-26T02:30:15.635Z,14.83
2019-03-26T02:30:55.462Z,14.93
2019-03-26T02:31:35.114Z,13.80
2019-03-26T02:32:14.742Z,13.97
2019-03-26T02:32:54.248Z,15.97
2019-03-26T02:33:34.058Z,16.13
2019-03-26T02:34:13.188Z,12.80
2019-03-26T02:34:52.346Z,14.77
2019-03-26T02:35:31.302Z,17.35
2019-03-26T02:36:10.690Z,13.22
2019-03-26T02:36:49.729Z,12.30
2019-03-26T02:37:31.006Z,15.07
2019-03-26T02:38:10.495Z,13.27
2019-03-26T02:38:49.937Z,14.00
2019-03-26T02:39:29.703Z,15.70
2019-03-26T02:40:09.360Z,14.13
2019-03-26T02:40:48.770Z,17.10
2019-03-26T02:41:28.738Z,17.43
2019-03-26T02:42:08.275Z,13.38
2019-03-26T02:42:47.962Z,12.60
2019-03-26T02:43:29.338Z,15.63
2019-03-26T02:44:08.755Z,13.47
2019-03-26T02:44:48.234Z,13.10
2019-03-26T02:45:27.774Z,13.80
2019-03-26T02:46:07.350Z,15.23
2019-03-26T02:46:46.833Z,15.63
2019-03-26T02:47:27.830Z,16.60
2019-03-26T02:48:07.375Z,16.73
2019-03-26T02:48:47.167Z,13.50
2019-03-26T02:49:26.845Z,14.50
2019-03-26T02:50:06.690Z,17.00
2019-03-26T02:50:46.217Z,15.33
2019-03-26T02:51:26.020Z,14.70
2019-03-26T02:52:05.810Z,14.80
2019-03-26T02:52:45.811Z,19.83
2019-03-26T02:53:24.918Z,15.37
2019-03-26T02:54:04.025Z,15.10
2019-03-26T02:54:43.181Z,15.80
2019-03-26T02:55:22.207Z,14.40
2019-03-26T02:56:01.479Z,15.93
2019-03-26T02:56:41.163Z,18.67
2019-03-26T02:57:20.422Z,15.17
2019-03-26T02:58:00.031Z,16.13
2019-03-26T02:58:39.866Z,19.20
2019-03-26T02:59:19.194Z,14.43
2019-03-26T02:59:58.720Z,18.70
2019-03-26T03:00:38.565Z,17.43
2019-03-26T03:01:18.131Z,14.80
2019-03-26T03:01:57.638Z,14.53
2019-03-26T03:02:37.490Z,15.77
2019-03-26T03:03:17.139Z,15.07
2019-03-26T03:03:57.127Z,14.03
2019-03-26T03:04:36.995Z,22.57
2019-03-26T03:05:33.542Z,15.37
2019-03-26T03:05:57.127Z,17.93
2019-03-26T03:06:36.869Z,14.90
2019-03-26T03:07:16.063Z,14.10
2019-03-26T03:07:55.920Z,15.67
2019-03-26T03:08:35.618Z,18.83
2019-03-26T03:09:14.671Z,14.77
2019-03-26T03:09:53.699Z,14.20
2019-03-26T03:10:32.963Z,17.20
2019-03-26T03:11:12.123Z,17.60
2019-03-26T03:11:51.649Z,14.67
2019-03-26T03:12:31.744Z,15.03
2019-03-26T03:13:11.405Z,16.47
2019-03-26T03:13:51.028Z,15.40
2019-03-26T03:14:30.468Z,18.13
2019-03-26T03:15:10.050Z,15.67
2019-03-26T03:15:49.263Z,16.37
2019-03-26T03:16:28.497Z,15.00
2019-03-26T03:17:07.591Z,16.77
2019-03-26T03:17:47.362Z,15.97
2019-03-26T03:18:26.422Z,15.73
2019-03-26T03:19:05.466Z,15.90
2019-03-26T03:19:44.554Z,17.53
2019-03-26T03:20:24.372Z,17.30
2019-03-26T03:21:03.481Z,15.30
2019-03-26T03:21:42.838Z,17.60
2019-03-26T03:22:22.454Z,14.97
2019-03-26T03:23:01.976Z,16.60
2019-03-26T03:23:41.750Z,15.50
2019-03-26T03:24:21.614Z,16.70
2019-03-26T03:25:01.593Z,14.70
2019-03-26T03:25:40.659Z,16.43
2019-03-26T03:26:21.084Z,16.27
2019-03-26T03:27:01.103Z,19.47
2019-03-26T03:27:40.861Z,18.50
2019-03-26T03:28:20.799Z,16.07
2019-03-26T03:29:00.413Z,17.73
2019-03-26T03:29:40.282Z,16.03
2019-03-26T03:30:20.106Z,17.93
2019-03-26T03:31:00.621Z,17.07
2019-03-26T03:31:40.289Z,17.17
2019-03-26T03:32:20.129Z,20.07
2019-03-26T03:32:59.768Z,17.17
2019-03-26T03:33:39.572Z,18.30
2019-03-26T03:34:18.898Z,16.83
2019-03-26T03:34:57.940Z,18.80
2019-03-26T03:35:51.498Z,17.50
2019-03-26T03:36:17.696Z,17.80
2019-03-26T03:36:57.312Z,17.40
2019-03-26T03:37:36.303Z,16.93
2019-03-26T03:38:15.351Z,17.73
2019-03-26T03:38:54.591Z,16.50
2019-03-26T03:39:33.632Z,16.00
2019-03-26T03:40:13.355Z,17.80
2019-03-26T03:40:53.009Z,16.20
2019-03-26T03:41:32.594Z,19.53
2019-03-26T03:42:12.358Z,18.73
2019-03-26T03:42:51.895Z,16.80
2019-03-26T03:43:31.555Z,17.40
2019-03-26T03:44:11.324Z,16.40
2019-03-26T03:44:51.121Z,20.17
2019-03-26T03:45:33.858Z,18.30
2019-03-26T03:46:13.586Z,17.20
2019-03-26T03:46:53.318Z,15.67
2019-03-26T03:47:35.862Z,17.27
2019-03-26T03:48:15.088Z,17.33
2019-03-26T03:48:54.620Z,16.40
2019-03-26T03:49:34.178Z,17.70
2019-03-26T03:50:13.601Z,16.80
2019-03-26T03:50:53.970Z,15.87
2019-03-26T03:51:33.707Z,15.70
2019-03-26T03:52:13.275Z,16.83
2019-03-26T03:52:53.775Z,16.67
2019-03-26T03:53:33.361Z,15.80
2019-03-26T03:54:12.696Z,14.93
2019-03-26T03:54:52.190Z,19.43
2019-03-26T03:55:31.953Z,17.30
2019-03-26T03:56:12.359Z,17.50
2019-03-26T03:56:51.932Z,14.60
2019-03-26T03:57:31.716Z,16.97
2019-03-26T03:58:11.391Z,17.00
2019-03-26T03:58:51.257Z,15.83
2019-03-26T03:59:31.178Z,17.77
2019-03-26T04:00:11.278Z,15.70
2019-03-26T04:00:50.980Z,16.20
2019-03-26T04:01:30.180Z,16.27
2019-03-26T04:02:09.535Z,18.07
2019-03-26T04:02:49.778Z,19.57
2019-03-26T04:03:29.115Z,15.20
2019-03-26T04:04:08.091Z,17.00
2019-03-26T04:04:47.181Z,15.30
2019-03-26T04:05:26.880Z,16.00
2019-03-26T04:06:09.570Z,14.90
2019-03-26T04:06:47.037Z,17.30
2019-03-26T04:07:26.907Z,15.53
2019-03-26T04:08:06.290Z,17.43
2019-03-26T04:08:46.552Z,15.07
2019-03-26T04:09:26.038Z,16.30
2019-03-26T04:10:05.578Z,17.63
2019-03-26T04:10:45.067Z,15.97
2019-03-26T04:11:25.168Z,16.47
2019-03-26T04:12:04.883Z,16.40
2019-03-26T04:12:44.448Z,15.27
2019-03-26T04:13:24.561Z,17.90
2019-03-26T04:14:04.350Z,16.07
2019-03-26T04:14:43.960Z,15.60
2019-03-26T04:15:23.654Z,14.87
2019-03-26T04:16:03.507Z,16.40
2019-03-26T04:16:42.545Z,17.10
2019-03-26T04:17:21.833Z,15.80
2019-03-26T04:18:00.883Z,15.40
2019-03-26T04:18:40.061Z,16.10
2019-03-26T04:19:20.406Z,14.53
2019-03-26T04:19:59.454Z,15.50
2019-03-26T04:20:38.690Z,19.30
2019-03-26T04:21:18.073Z,16.07
2019-03-26T04:21:57.259Z,15.27
2019-03-26T04:22:36.908Z,15.30
2019-03-26T04:23:16.585Z,16.40
2019-03-26T04:23:56.189Z,14.53
2019-03-26T04:24:35.837Z,18.47
2019-03-26T04:25:15.268Z,15.30
2019-03-26T04:25:55.078Z,15.07
2019-03-26T04:26:34.675Z,14.70
2019-03-26T04:27:13.762Z,15.77
2019-03-26T04:27:53.299Z,15.03
2019-03-26T04:28:33.080Z,18.70
2019-03-26T04:29:12.401Z,16.00
2019-03-26T04:29:51.373Z,15.67
2019-03-26T04:30:34.766Z,16.50
2019-03-26T04:31:14.655Z,15.03
2019-03-26T04:31:54.295Z,17.20
2019-03-26T04:32:33.910Z,14.30
2019-03-26T04:33:12.913Z,15.93
2019-03-26T04:33:52.116Z,14.53
2019-03-26T04:34:31.581Z,14.77
2019-03-26T04:35:11.102Z,15.83
2019-03-26T04:35:50.130Z,15.80
2019-03-26T04:36:29.288Z,17.20
2019-03-26T04:37:08.660Z,14.40
2019-03-26T04:37:48.275Z,15.83
2019-03-26T04:38:27.841Z,15.07
2019-03-26T04:39:07.643Z,15.40
2019-03-26T04:39:46.739Z,14.70
2019-03-26T04:40:26.350Z,16.83
2019-03-26T04:41:05.972Z,15.23
2019-03-26T04:41:45.017Z,14.00
2019-03-26T04:42:27.026Z,14.47
2019-03-26T04:43:07.346Z,14.37
2019-03-26T04:43:47.285Z,17.17
2019-03-26T04:44:27.170Z,15.93
2019-03-26T04:45:06.544Z,14.47
2019-03-26T04:45:46.938Z,15.10
2019-03-26T04:46:26.539Z,14.60
2019-03-26T04:47:05.908Z,15.00
2019-03-26T04:47:45.553Z,15.53
2019-03-26T04:48:25.217Z,14.53
2019-03-26T04:49:06.393Z,15.27
2019-03-26T04:49:49.038Z,15.37
2019-03-26T04:50:28.566Z,14.47
2019-03-26T04:51:09.242Z,15.00
2019-03-26T04:51:49.660Z,13.83
2019-03-26T04:52:29.194Z,15.27
2019-03-26T04:53:08.644Z,14.37
2019-03-26T04:53:48.166Z,14.90
2019-03-26T04:54:27.677Z,15.60
2019-03-26T04:55:07.342Z,14.43
2019-03-26T04:55:46.973Z,14.27
2019-03-26T04:56:26.063Z,18.70
2019-03-26T04:57:05.902Z,17.90
2019-03-26T04:57:45.740Z,13.90
2019-03-26T04:58:25.693Z,14.67
2019-03-26T04:59:05.223Z,14.87
2019-03-26T04:59:44.316Z,15.20
2019-03-26T05:00:23.761Z,15.27
2019-03-26T05:01:03.388Z,13.67
2019-03-26T05:01:43.116Z,16.70
2019-03-26T05:02:22.683Z,14.20
2019-03-26T05:03:01.726Z,15.53
2019-03-26T05:03:40.895Z,15.73
2019-03-26T05:04:20.203Z,16.67
2019-03-26T05:04:59.596Z,15.77
2019-03-26T05:05:39.124Z,14.33
2019-03-26T05:06:19.410Z,15.37
2019-03-26T05:06:59.760Z,13.80
2019-03-26T05:07:39.710Z,14.30
2019-03-26T05:08:19.213Z,14.07
2019-03-26T05:08:58.809Z,14.10
2019-03-26T05:09:38.339Z,14.00
2019-03-26T05:10:18.764Z,15.17
2019-03-26T05:10:58.230Z,14.10
2019-03-26T05:11:37.253Z,13.03
2019-03-26T05:12:17.181Z,13.40
2019-03-26T05:12:56.784Z,16.10
2019-03-26T05:13:36.516Z,13.17
2019-03-26T05:14:16.293Z,14.10
2019-03-26T05:14:56.078Z,15.00
2019-03-26T05:15:35.729Z,13.30
2019-03-26T05:16:14.728Z,13.60
2019-03-26T05:16:53.735Z,14.63
2019-03-26T05:17:32.752Z,14.43
2019-03-26T05:18:12.110Z,14.17
2019-03-26T05:18:52.119Z,14.77
2019-03-26T05:19:31.150Z,14.40
2019-03-26T05:20:10.805Z,13.23
2019-03-26T05:20:50.588Z,14.23
2019-03-26T05:21:29.805Z,13.20
2019-03-26T05:22:09.252Z,15.07
2019-03-26T05:22:49.450Z,14.43
2019-03-26T05:23:28.885Z,14.27
2019-03-26T05:24:07.913Z,13.63
2019-03-26T05:24:47.529Z,13.43
2019-03-26T05:25:27.662Z,14.30
2019-03-26T05:26:08.167Z,15.27
2019-03-26T05:26:48.270Z,14.83
2019-03-26T05:27:27.998Z,13.73
2019-03-26T05:28:07.733Z,12.40
2019-03-26T05:28:47.072Z,14.13
2019-03-26T05:29:26.078Z,14.27
2019-03-26T05:30:05.604Z,13.83
2019-03-26T05:30:44.616Z,14.93
2019-03-26T05:31:24.959Z,16.47
2019-03-26T05:32:04.032Z,13.43
2019-03-26T05:32:43.394Z,13.83
2019-03-26T05:33:22.711Z,13.40
2019-03-26T05:34:01.714Z,13.07
2019-03-26T05:34:41.241Z,14.57
2019-03-26T05:35:20.947Z,13.23
2019-03-26T05:36:00.196Z,13.33
2019-03-26T05:36:50.606Z,16.80
2019-03-26T05:37:20.792Z,13.60
2019-03-26T05:38:00.141Z,13.67
2019-03-26T05:38:39.845Z,12.97
2019-03-26T05:39:19.608Z,12.53
2019-03-26T05:39:59.213Z,13.80
2019-03-26T05:40:39.174Z,13.23
2019-03-26T05:41:18.879Z,13.20
2019-03-26T05:41:58.854Z,13.10
2019-03-26T05:42:38.942Z,13.30
2019-03-26T05:43:37.292Z,13.30
2019-03-26T05:44:16.296Z,12.70
2019-03-26T05:44:55.352Z,13.50
2019-03-26T05:45:34.351Z,12.77
2019-03-26T05:46:14.614Z,13.70
2019-03-26T05:46:54.044Z,13.53
2019-03-26T05:47:34.273Z,12.60
2019-03-26T05:48:13.609Z,12.90
2019-03-26T05:48:53.360Z,13.40
2019-03-26T05:49:33.674Z,12.97
2019-03-26T05:50:13.404Z,13.63
2019-03-26T05:50:53.136Z,14.40
2019-03-26T05:51:32.968Z,13.73
2019-03-26T05:52:13.365Z,12.93
2019-03-26T05:52:52.961Z,13.77
2019-03-26T05:53:32.630Z,13.80
2019-03-26T05:54:11.617Z,13.37
2019-03-26T05:54:53.176Z,13.03
2019-03-26T05:55:33.128Z,13.40
2019-03-26T05:56:13.013Z,14.13
2019-03-26T05:56:52.017Z,13.00
2019-03-26T05:57:31.681Z,12.50
2019-03-26T05:58:11.148Z,13.13
2019-03-26T05:58:50.939Z,13.43
2019-03-26T05:59:30.161Z,12.83
2019-03-26T06:00:11.786Z,13.30
2019-03-26T06:00:51.456Z,13.07
2019-03-26T06:01:30.600Z,13.30
2019-03-26T06:02:15.099Z,14.03
2019-03-26T06:02:51.299Z,13.10
2019-03-26T06:03:30.593Z,14.10
2019-03-26T06:04:10.502Z,12.47
2019-03-26T06:04:50.216Z,14.47
2019-03-26T06:05:29.588Z,14.30
2019-03-26T06:06:09.345Z,13.03
2019-03-26T06:06:48.379Z,13.93
2019-03-26T06:07:27.382Z,12.93
2019-03-26T06:08:06.388Z,12.93
2019-03-26T06:08:45.641Z,13.30
2019-03-26T06:09:24.745Z,13.10
2019-03-26T06:10:04.459Z,13.33
2019-03-26T06:10:43.868Z,13.60
2019-03-26T06:11:23.765Z,13.10
2019-03-26T06:12:03.408Z,13.07
2019-03-26T06:12:43.063Z,13.43
2019-03-26T06:13:23.110Z,17.63
2019-03-26T06:14:02.708Z,13.30
2019-03-26T06:14:42.629Z,12.90
2019-03-26T06:15:22.170Z,13.40
2019-03-26T06:16:02.499Z,13.70
2019-03-26T06:16:42.086Z,13.20
2019-03-26T06:17:21.669Z,12.97
2019-03-26T06:18:00.810Z,13.30
2019-03-26T06:18:40.620Z,13.53
2019-03-26T06:19:21.104Z,13.20
2019-03-26T06:20:00.911Z,12.53
2019-03-26T06:20:40.629Z,12.43
2019-03-26T06:21:19.660Z,12.67
2019-03-26T06:21:58.672Z,14.23
2019-03-26T06:22:38.498Z,13.37
2019-03-26T06:23:17.535Z,13.50
2019-03-26T06:23:57.152Z,14.40
2019-03-26T06:24:36.465Z,12.37
2019-03-26T06:25:16.154Z,12.90
2019-03-26T06:25:55.637Z,13.27
2019-03-26T06:26:35.301Z,13.07
2019-03-26T06:27:14.828Z,14.50
2019-03-26T06:27:54.605Z,14.10
2019-03-26T06:28:34.131Z,13.40
2019-03-26T06:29:14.538Z,12.57
2019-03-26T06:29:54.151Z,13.10
2019-03-26T06:30:33.844Z,13.83
2019-03-26T06:31:13.599Z,12.10
2019-03-26T06:31:53.215Z,13.73
2019-03-26T06:32:32.844Z,12.23
2019-03-26T06:33:12.325Z,13.10
2019-03-26T06:33:52.291Z,14.30
2019-03-26T06:34:32.337Z,15.70
2019-03-26T06:35:12.503Z,12.17
2019-03-26T06:35:52.047Z,13.33
2019-03-26T06:36:31.072Z,13.30
2019-03-26T06:37:17.880Z,14.30
2019-03-26T06:37:51.411Z,12.73
2019-03-26T06:38:31.132Z,13.67
2019-03-26T06:39:11.937Z,12.53
2019-03-26T06:39:51.024Z,12.33
2019-03-26T06:40:30.116Z,17.03
2019-03-26T06:41:09.939Z,15.00
2019-03-26T06:41:48.993Z,13.27
2019-03-26T06:42:28.269Z,12.77
2019-03-26T06:43:07.713Z,12.77
2019-03-26T06:43:47.472Z,12.83
2019-03-26T06:44:27.093Z,13.30
2019-03-26T06:45:06.883Z,14.07
2019-03-26T06:45:46.549Z,13.53
2019-03-26T06:46:26.422Z,16.77
2019-03-26T06:47:06.119Z,12.93
2019-03-26T06:47:45.886Z,12.73
2019-03-26T06:48:25.342Z,13.07
2019-03-26T06:49:05.093Z,12.30
2019-03-26T06:49:44.627Z,12.80
2019-03-26T06:50:25.442Z,12.13
2019-03-26T06:51:05.109Z,12.43
2019-03-26T06:51:44.843Z,14.17
2019-03-26T06:52:25.326Z,12.67
2019-03-26T06:53:05.043Z,12.80
2019-03-26T06:53:44.649Z,12.17
2019-03-26T06:54:24.245Z,12.80
2019-03-26T06:55:04.000Z,12.90
2019-03-26T06:55:43.722Z,13.53
2019-03-26T06:56:22.953Z,13.37
2019-03-26T06:57:01.983Z,12.97
2019-03-26T06:57:42.640Z,12.43
2019-03-26T06:58:22.175Z,12.27
2019-03-26T06:59:01.259Z,12.53
2019-03-26T06:59:40.308Z,14.87
2019-03-26T07:00:21.023Z,13.20
2019-03-26T07:01:18.384Z,11.50
2019-03-26T07:01:57.950Z,12.90
2019-03-26T07:02:37.593Z,12.30
2019-03-26T07:03:17.969Z,13.37
2019-03-26T07:03:57.603Z,13.00
2019-03-26T07:04:37.151Z,12.97
2019-03-26T07:05:17.423Z,12.70
2019-03-26T07:05:56.897Z,13.13
2019-03-26T07:06:37.370Z,13.10
2019-03-26T07:07:30.504Z,12.90
2019-03-26T07:07:57.932Z,11.80
2019-03-26T07:08:38.482Z,14.47
2019-03-26T07:09:18.318Z,13.37
2019-03-26T07:09:57.654Z,13.17
2019-03-26T07:10:37.162Z,12.50
2019-03-26T07:11:16.726Z,13.83
2019-03-26T07:11:56.403Z,12.80
2019-03-26T07:12:35.878Z,11.80
2019-03-26T07:13:15.537Z,13.00
2019-03-26T07:13:54.954Z,13.03
2019-03-26T07:14:34.529Z,11.70
2019-03-26T07:15:14.151Z,13.10
2019-03-26T07:15:53.248Z,12.57
2019-03-26T07:16:32.561Z,12.53
2019-03-26T07:17:11.591Z,11.73
2019-03-26T07:17:52.428Z,11.80
2019-03-26T07:18:31.238Z,12.03
2019-03-26T07:19:10.632Z,13.27
2019-03-26T07:19:50.593Z,15.00
2019-03-26T07:20:29.698Z,13.50
2019-03-26T07:21:09.302Z,13.23
2019-03-26T07:21:50.122Z,14.70
2019-03-26T07:22:29.187Z,12.77
2019-03-26T07:23:08.516Z,11.90
2019-03-26T07:23:48.130Z,13.53
2019-03-26T07:24:27.766Z,12.90
2019-03-26T07:25:07.252Z,13.00
2019-03-26T07:25:46.922Z,12.37
2019-03-26T07:26:26.653Z,12.57
2019-03-26T07:27:07.521Z,12.70
2019-03-26T07:27:47.127Z,12.23
2019-03-26T07:28:29.802Z,13.17
2019-03-26T07:29:10.023Z,12.87
2019-03-26T07:29:50.047Z,13.20
2019-03-26T07:30:48.316Z,13.87
2019-03-26T07:31:28.210Z,13.30
2019-03-26T07:32:07.229Z,12.90
2019-03-26T07:32:49.014Z,13.07
2019-03-26T07:33:28.728Z,13.10
2019-03-26T07:34:11.085Z,13.20
2019-03-26T07:34:59.232Z,12.67
2019-03-26T07:35:38.515Z,12.83
2019-03-26T07:36:18.490Z,14.10
2019-03-26T07:36:58.016Z,13.80
2019-03-26T07:37:45.141Z,13.93
2019-03-26T07:38:18.626Z,14.40
2019-03-26T07:38:58.542Z,14.30
2019-03-26T07:39:39.170Z,13.50
2019-03-26T07:40:20.370Z,13.57
2019-03-26T07:41:03.205Z,14.33
2019-03-26T07:41:42.456Z,13.90
2019-03-26T07:42:21.925Z,13.30
2019-03-26T07:43:02.036Z,13.57
2019-03-26T07:43:41.586Z,14.50
2019-03-26T07:44:21.408Z,14.37
2019-03-26T07:45:01.214Z,14.47
2019-03-26T07:45:40.575Z,13.70
2019-03-26T07:46:20.308Z,13.80
2019-03-26T07:46:59.903Z,14.80
2019-03-26T07:47:39.555Z,13.73
2019-03-26T07:48:18.996Z,13.43
2019-03-26T07:48:58.739Z,12.53
2019-03-26T07:49:38.146Z,13.33
2019-03-26T07:50:18.668Z,13.63
2019-03-26T07:50:58.281Z,13.40
2019-03-26T07:51:37.296Z,13.60
2019-03-26T07:52:16.288Z,13.97
2019-03-26T07:52:55.307Z,14.10
2019-03-26T07:53:34.471Z,13.23
2019-03-26T07:54:13.607Z,13.23
2019-03-26T07:54:53.908Z,13.10
2019-03-26T07:55:33.358Z,13.83
2019-03-26T07:56:13.009Z,13.20
2019-03-26T07:56:52.431Z,13.17
2019-03-26T07:57:31.392Z,12.57
2019-03-26T07:58:11.172Z,13.90
2019-03-26T07:58:50.806Z,13.70
2019-03-26T07:59:30.334Z,13.10
2019-03-26T08:00:10.776Z,13.33
2019-03-26T08:00:50.354Z,12.70
2019-03-26T08:01:29.909Z,14.27
2019-03-26T08:02:08.892Z,13.43
2019-03-26T08:02:48.558Z,15.03
2019-03-26T08:03:28.447Z,12.87
2019-03-26T08:04:07.432Z,12.70
2019-03-26T08:04:46.942Z,13.67
2019-03-26T08:05:30.028Z,13.40
2019-03-26T08:06:06.639Z,14.10
2019-03-26T08:06:46.478Z,14.00
2019-03-26T08:07:25.703Z,14.37
2019-03-26T08:08:05.174Z,12.93
2019-03-26T08:08:44.467Z,13.97
2019-03-26T08:09:24.035Z,14.30
2019-03-26T08:10:03.675Z,15.33
2019-03-26T08:10:43.779Z,12.87
2019-03-26T08:11:23.400Z,13.93
2019-03-26T08:12:02.876Z,14.10
2019-03-26T08:12:43.354Z,13.10
2019-03-26T08:13:23.260Z,14.63
2019-03-26T08:14:02.722Z,15.27
2019-03-26T08:14:42.198Z,15.23
2019-03-26T08:15:22.125Z,14.50
2019-03-26T08:16:01.894Z,13.87
2019-03-26T08:16:40.896Z,14.50
2019-03-26T08:17:19.937Z,13.70
2019-03-26T08:17:59.328Z,14.57
2019-03-26T08:18:39.185Z,14.27
2019-03-26T08:19:18.193Z,14.30
2019-03-26T08:19:57.676Z,13.53
2019-03-26T08:20:36.691Z,13.67
2019-03-26T08:21:15.790Z,13.60
2019-03-26T08:21:55.321Z,14.70
2019-03-26T08:22:35.477Z,13.50
2019-03-26T08:23:14.808Z,13.03
2019-03-26T08:23:54.545Z,14.30
2019-03-26T08:24:34.257Z,13.27
2019-03-26T08:25:13.788Z,13.17
2019-03-26T08:25:54.303Z,14.67
2019-03-26T08:26:33.827Z,14.27
2019-03-26T08:27:13.237Z,13.17
2019-03-26T08:27:52.777Z,13.20
2019-03-26T08:28:32.287Z,14.23
2019-03-26T08:29:11.292Z,14.20
2019-03-26T08:29:52.786Z,14.27
2019-03-26T08:30:32.258Z,13.43
2019-03-26T08:31:11.769Z,13.73
2019-03-26T08:31:50.796Z,14.37
2019-03-26T08:32:29.808Z,13.63
2019-03-26T08:33:08.728Z,14.43
2019-03-26T08:33:48.855Z,14.77